Time,TemperatureF,DewpointF,PressureIn,WindDirection,WindDirectionDegrees,WindSpeedMPH,WindSpeedGustMPH,Humidity,HourlyPrecipIn,Conditions,Clouds,dailyrainin,SoftwareType,DateUTC
2014-03-12 00:02:00,59.7,56.8,29.97,SSE,163,1.0,4.0,90,0.00,,,0.00,Wunderground v.1.15,2014-03-12 07:02:00,
2014-03-12 00:12:00,59.6,56.7,29.97,SSE,163,1.0,4.0,90,0.00,,,0.00,Wunderground v.1.15,2014-03-12 07:12:00,
2014-03-12 00:22:00,59.6,56.4,29.97,SSE,163,2.0,2.0,89,0.00,,,0.00,Wunderground v.1.15,2014-03-12 07:22:00,
2014-03-12 00:32:00,59.5,56.3,29.97,SSE,163,1.0,1.0,89,0.00,,,0.00,Wunderground v.1.15,2014-03-12 07:32:00,
2014-03-12 00:42:00,59.3,56.1,29.97,SSE,163,1.0,1.0,89,0.00,,,0.00,Wunderground v.1.15,2014-03-12 07:42:00,
2014-03-12 00:52:00,59.2,56.0,29.97,SSE,163,0.0,0.0,89,0.00,,,0.00,Wunderground v.1.15,2014-03-12 07:52:00,
2014-03-12 01:02:00,59.1,56.2,29.97,SSE,163,0.0,5.0,90,0.00,,,0.00,Wunderground v.1.15,2014-03-12 08:02:00,
2014-03-12 01:12:00,59.0,56.1,29.97,SSE,163,0.0,5.0,90,0.00,,,0.00,Wunderground v.1.15,2014-03-12 08:12:00,
2014-03-12 01:17:00,59.0,56.1,29.97,SSE,163,0.0,5.0,90,0.00,,,0.00,Wunderground v.1.15,2014-03-12 08:17:00,
2014-03-12 01:27:00,58.9,56.0,29.97,SSE,163,0.0,0.0,90,0.00,,,0.00,Wunderground v.1.15,2014-03-12 08:27:00,
2014-03-12 01:32:00,58.8,55.9,29.97,SSE,163,0.0,0.0,90,0.00,,,0.00,Wunderground v.1.15,2014-03-12 08:32:00,
2014-03-12 01:42:00,58.7,56.1,29.96,SSE,163,0.0,0.0,91,0.00,,,0.00,Wunderground v.1.15,2014-03-12 08:42:00,
2014-03-12 01:47:00,58.6,55.7,29.96,SSE,163,0.0,0.0,90,0.00,,,0.00,Wunderground v.1.15,2014-03-12 08:47:00,
2014-03-12 01:57:00,58.4,55.8,29.96,SSE,163,0.0,1.0,91,0.00,,,0.00,Wunderground v.1.15,2014-03-12 08:57:00,
2014-03-12 02:07:00,58.3,55.7,29.96,SSE,163,0.0,5.0,91,0.00,,,0.00,Wunderground v.1.15,2014-03-12 09:07:00,
2014-03-12 02:17:00,57.9,55.3,29.96,SSE,163,1.0,5.0,91,0.00,,,0.00,Wunderground v.1.15,2014-03-12 09:17:00,
2014-03-12 02:22:00,57.7,55.1,29.96,SSE,163,0.0,0.0,91,0.00,,,0.00,Wunderground v.1.15,2014-03-12 09:22:00,
2014-03-12 02:32:00,57.1,54.5,29.96,SSE,163,0.0,1.0,91,0.00,,,0.00,Wunderground v.1.15,2014-03-12 09:32:00,
2014-03-12 02:42:00,56.6,54.0,29.96,SSE,163,1.0,1.0,91,0.00,,,0.00,Wunderground v.1.15,2014-03-12 09:42:00,
2014-03-12 02:47:00,56.3,53.7,29.96,SSE,163,0.0,1.0,91,0.00,,,0.00,Wunderground v.1.15,2014-03-12 09:47:00,
2014-03-12 02:52:00,56.1,53.8,29.96,SSE,163,0.0,0.0,92,0.00,,,0.00,Wunderground v.1.15,2014-03-12 09:52:00,
2014-03-12 03:02:00,55.6,53.0,29.95,SSE,163,0.0,2.0,91,0.00,,,0.00,Wunderground v.1.15,2014-03-12 10:02:00,
2014-03-12 03:07:00,55.4,53.1,29.95,SSE,163,0.0,2.0,92,0.00,,,0.00,Wunderground v.1.15,2014-03-12 10:07:00,
2014-03-12 03:17:00,55.0,52.7,29.95,SSE,163,0.0,2.0,92,0.00,,,0.00,Wunderground v.1.15,2014-03-12 10:17:00,
2014-03-12 03:22:00,54.8,52.5,29.95,SSE,163,0.0,0.0,92,0.00,,,0.00,Wunderground v.1.15,2014-03-12 10:22:00,
2014-03-12 03:32:00,54.2,51.9,29.94,SSE,163,0.0,0.0,92,0.00,,,0.00,Wunderground v.1.15,2014-03-12 10:32:00,
2014-03-12 03:42:00,54.0,52.0,29.94,SSE,163,0.0,0.0,93,0.00,,,0.00,Wunderground v.1.15,2014-03-12 10:42:00,
2014-03-12 03:52:00,53.8,51.8,29.94,SSE,163,0.0,0.0,93,0.00,,,0.00,Wunderground v.1.15,2014-03-12 10:52:00,
2014-03-12 04:02:00,53.6,51.6,29.94,SSE,163,0.0,2.0,93,0.00,,,0.00,Wunderground v.1.15,2014-03-12 11:02:00,
2014-03-12 04:07:00,53.4,51.4,29.94,SSE,163,0.0,2.0,93,0.00,,,0.00,Wunderground v.1.15,2014-03-12 11:07:00,
2014-03-12 04:17:00,53.0,51.0,29.94,SSE,163,0.0,2.0,93,0.00,,,0.00,Wunderground v.1.15,2014-03-12 11:17:00,
2014-03-12 04:22:00,52.9,50.9,29.94,SSE,163,0.0,0.0,93,0.00,,,0.00,Wunderground v.1.15,2014-03-12 11:22:00,
2014-03-12 04:32:00,52.7,51.0,29.94,SSE,163,0.0,0.0,94,0.00,,,0.00,Wunderground v.1.15,2014-03-12 11:32:00,
2014-03-12 04:42:00,52.3,50.3,29.94,SSE,163,0.0,0.0,93,0.00,,,0.00,Wunderground v.1.15,2014-03-12 11:42:00,
2014-03-12 04:52:00,52.1,50.1,29.94,SSE,163,0.0,0.0,93,0.00,,,0.00,Wunderground v.1.15,2014-03-12 11:52:00,
2014-03-12 05:02:00,51.8,49.8,29.94,SSE,163,0.0,1.0,93,0.00,,,0.00,Wunderground v.1.15,2014-03-12 12:02:00,
2014-03-12 05:12:00,51.5,49.8,29.94,SSE,163,0.0,1.0,94,0.00,,,0.00,Wunderground v.1.15,2014-03-12 12:12:00,
2014-03-12 05:17:00,51.4,49.7,29.94,SSE,163,0.0,1.0,94,0.00,,,0.00,Wunderground v.1.15,2014-03-12 12:17:00,
2014-03-12 05:27:00,51.3,49.6,29.94,SSE,163,0.0,0.0,94,0.00,,,0.00,Wunderground v.1.15,2014-03-12 12:27:00,
2014-03-12 05:32:00,51.1,49.1,29.95,SSE,163,0.0,0.0,93,0.00,,,0.00,Wunderground v.1.15,2014-03-12 12:32:00,
2014-03-12 05:42:00,50.8,49.1,29.95,SSE,163,0.0,0.0,94,0.00,,,0.00,Wunderground v.1.15,2014-03-12 12:42:00,
2014-03-12 05:52:00,50.5,48.6,29.95,SSE,163,0.0,0.0,93,0.00,,,0.00,Wunderground v.1.15,2014-03-12 12:52:00,
2014-03-12 06:02:00,50.3,48.6,29.96,SSE,163,0.0,1.0,94,0.00,,,0.00,Wunderground v.1.15,2014-03-12 13:02:00,
2014-03-12 06:12:00,50.0,48.1,29.96,SSE,163,0.0,1.0,93,0.00,,,0.00,Wunderground v.1.15,2014-03-12 13:12:00,
2014-03-12 06:22:00,49.6,47.7,29.96,SSE,163,0.0,0.0,93,0.00,,,0.00,Wunderground v.1.15,2014-03-12 13:22:00,
2014-03-12 06:27:00,49.5,47.6,29.96,SSE,163,0.0,0.0,93,0.00,,,0.00,Wunderground v.1.15,2014-03-12 13:27:00,
2014-03-12 06:37:00,49.2,47.3,29.97,SSE,163,0.0,0.0,93,0.00,,,0.00,Wunderground v.1.15,2014-03-12 13:37:00,
2014-03-12 06:42:00,49.1,47.2,29.97,SSE,163,0.0,0.0,93,0.00,,,0.00,Wunderground v.1.15,2014-03-12 13:42:00,
2014-03-12 06:52:00,48.9,47.0,29.97,SSE,163,0.0,0.0,93,0.00,,,0.00,Wunderground v.1.15,2014-03-12 13:52:00,
2014-03-12 07:02:00,48.8,46.9,29.97,SSE,163,0.0,1.0,93,0.00,,,0.00,Wunderground v.1.15,2014-03-12 14:02:00,
2014-03-12 07:12:00,48.7,46.8,29.98,SSE,163,0.0,1.0,93,0.00,,,0.00,Wunderground v.1.15,2014-03-12 14:12:00,
2014-03-12 07:22:00,48.7,46.5,29.98,SSE,163,0.0,0.0,92,0.00,,,0.00,Wunderground v.1.15,2014-03-12 14:22:00,
2014-03-12 07:32:00,48.6,46.4,29.98,SSE,163,0.0,0.0,92,0.00,,,0.00,Wunderground v.1.15,2014-03-12 14:32:00,
2014-03-12 07:42:00,48.7,46.2,29.99,SSE,163,0.0,0.0,91,0.00,,,0.00,Wunderground v.1.15,2014-03-12 14:42:00,
2014-03-12 07:52:00,48.8,46.3,29.99,SSE,163,0.0,0.0,91,0.00,,,0.00,Wunderground v.1.15,2014-03-12 14:52:00,
2014-03-12 08:02:00,49.9,47.4,29.99,SSE,163,0.0,2.0,91,0.00,,,0.00,Wunderground v.1.15,2014-03-12 15:02:00,
2014-03-12 08:07:00,50.4,47.9,29.99,SSE,163,0.0,2.0,91,0.00,,,0.00,Wunderground v.1.15,2014-03-12 15:07:00,
2014-03-12 08:17:00,51.9,49.9,29.99,SSE,163,0.0,2.0,93,0.00,,,0.00,Wunderground v.1.15,2014-03-12 15:17:00,
2014-03-12 08:22:00,53.1,51.4,29.99,SSE,163,1.0,2.0,94,0.00,,,0.00,Wunderground v.1.15,2014-03-12 15:22:00,
2014-03-12 08:32:00,54.8,52.8,30.00,SSE,163,1.0,1.0,93,0.00,,,0.00,Wunderground v.1.15,2014-03-12 15:32:00,
2014-03-12 08:42:00,55.7,52.8,30.00,SSE,163,0.0,1.0,90,0.00,,,0.00,Wunderground v.1.15,2014-03-12 15:42:00,
2014-03-12 08:52:00,56.8,53.0,30.00,SSE,163,0.0,1.0,87,0.00,,,0.00,Wunderground v.1.15,2014-03-12 15:52:00,
2014-03-12 09:02:00,58.2,53.1,30.00,SSE,163,1.0,1.0,83,0.00,,,0.00,Wunderground v.1.15,2014-03-12 16:02:00,
2014-03-12 09:12:00,59.6,53.4,30.00,South,173,1.0,1.0,80,0.00,,,0.00,Wunderground v.1.15,2014-03-12 16:12:00,
2014-03-12 09:22:00,61.0,54.1,30.00,South,180,1.0,1.0,78,0.00,,,0.00,Wunderground v.1.15,2014-03-12 16:22:00,
2014-03-12 09:32:00,62.1,53.3,30.00,NW,308,2.0,2.0,73,0.00,,,0.00,Wunderground v.1.15,2014-03-12 16:32:00,
2014-03-12 09:37:00,62.4,52.9,30.00,NW,324,3.0,4.0,71,0.00,,,0.00,Wunderground v.1.15,2014-03-12 16:37:00,
2014-03-12 09:47:00,63.2,50.8,30.00,West,274,2.0,2.0,64,0.00,,,0.00,Wunderground v.1.15,2014-03-12 16:47:00,
2014-03-12 09:52:00,63.8,51.0,30.00,NNW,327,2.0,4.0,63,0.00,,,0.00,Wunderground v.1.15,2014-03-12 16:52:00,
2014-03-12 09:57:00,64.5,50.3,30.00,NW,311,2.0,4.0,60,0.00,,,0.00,Wunderground v.1.15,2014-03-12 16:57:00,
2014-03-12 10:07:00,65.9,50.2,30.00,WNW,296,2.0,4.0,57,0.00,,,0.00,Wunderground v.1.15,2014-03-12 17:07:00,
2014-03-12 10:12:00,66.6,49.9,30.00,NW,324,2.0,5.0,55,0.00,,,0.00,Wunderground v.1.15,2014-03-12 17:12:00,
2014-03-12 10:17:00,67.2,47.4,30.00,NNW,331,3.0,5.0,49,0.00,,,0.00,Wunderground v.1.15,2014-03-12 17:17:00,
2014-03-12 10:27:00,68.9,46.1,30.00,WNW,292,2.0,3.0,44,0.00,,,0.00,Wunderground v.1.15,2014-03-12 17:27:00,
2014-03-12 10:37:00,70.2,47.9,30.00,SSW,205,2.0,4.0,45,0.00,,,0.00,Wunderground v.1.15,2014-03-12 17:37:00,
2014-03-12 10:42:00,70.2,46.0,29.99,SW,223,3.0,3.0,42,0.00,,,0.00,Wunderground v.1.15,2014-03-12 17:42:00,
2014-03-12 10:52:00,70.6,43.1,29.99,SW,223,3.0,3.0,37,0.00,,,0.00,Wunderground v.1.15,2014-03-12 17:52:00,
2014-03-12 10:57:00,71.5,43.8,29.99,SE,136,3.0,5.0,37,0.00,,,0.00,Wunderground v.1.15,2014-03-12 17:57:00,
2014-03-12 11:07:00,74.8,28.4,29.98,East,84,6.0,9.0,18,0.00,,,0.00,Wunderground v.1.15,2014-03-12 18:07:00,
2014-03-12 11:12:00,75.5,27.6,29.98,ENE,64,6.0,6.0,17,0.00,,,0.00,Wunderground v.1.15,2014-03-12 18:12:00,
2014-03-12 11:22:00,76.3,28.3,29.98,East,98,5.0,6.0,17,0.00,,,0.00,Wunderground v.1.15,2014-03-12 18:22:00,
2014-03-12 11:32:00,76.4,26.9,29.98,SE,126,6.0,6.0,16,0.00,,,0.00,Wunderground v.1.15,2014-03-12 18:32:00,
2014-03-12 11:42:00,76.2,25.1,29.97,ENE,74,8.0,8.0,15,0.00,,,0.00,Wunderground v.1.15,2014-03-12 18:42:00,
2014-03-12 11:52:00,76.0,26.5,29.97,NE,37,9.0,10.0,16,0.00,,,0.00,Wunderground v.1.15,2014-03-12 18:52:00,
2014-03-12 11:57:00,76.3,26.8,29.97,East,82,9.0,10.0,16,0.00,,,0.00,Wunderground v.1.15,2014-03-12 18:57:00,
2014-03-12 12:07:00,77.0,27.3,29.97,ESE,113,7.0,12.0,16,0.00,,,0.00,Wunderground v.1.15,2014-03-12 19:07:00,
2014-03-12 12:17:00,77.3,27.6,29.97,East,81,5.0,12.0,16,0.00,,,0.00,Wunderground v.1.15,2014-03-12 19:17:00,
2014-03-12 12:22:00,77.5,27.7,29.96,ENE,77,6.0,6.0,16,0.00,,,0.00,Wunderground v.1.15,2014-03-12 19:22:00,
2014-03-12 12:32:00,77.6,26.3,29.96,ENE,68,6.0,8.0,15,0.00,,,0.00,Wunderground v.1.15,2014-03-12 19:32:00,
2014-03-12 12:42:00,78.4,26.9,29.95,SE,127,5.0,8.0,15,0.00,,,0.00,Wunderground v.1.15,2014-03-12 19:42:00,
2014-03-12 12:52:00,78.1,28.2,29.95,SE,135,7.0,7.0,16,0.00,,,0.00,Wunderground v.1.15,2014-03-12 19:52:00,
2014-03-12 12:57:00,78.5,27.0,29.95,SE,125,6.0,7.0,15,0.00,,,0.00,Wunderground v.1.15,2014-03-12 19:57:00,
2014-03-12 13:07:00,78.7,27.1,29.94,East,93,6.0,19.0,15,0.00,,,0.00,Wunderground v.1.15,2014-03-12 20:07:00,
2014-03-12 13:17:00,78.8,27.2,29.94,SE,139,6.0,8.0,15,0.00,,,0.00,Wunderground v.1.15,2014-03-12 20:17:00,
2014-03-12 13:22:00,78.6,28.6,29.93,East,88,5.0,5.0,16,0.00,,,0.00,Wunderground v.1.15,2014-03-12 20:22:00,
2014-03-12 13:32:00,78.8,28.8,29.93,ENE,65,5.0,8.0,16,0.00,,,0.00,Wunderground v.1.15,2014-03-12 20:32:00,
2014-03-12 13:42:00,79.3,29.2,29.93,East,91,4.0,4.0,16,0.00,,,0.00,Wunderground v.1.15,2014-03-12 20:42:00,
2014-03-12 13:52:00,79.6,27.9,29.92,South,184,3.0,6.0,15,0.00,,,0.00,Wunderground v.1.15,2014-03-12 20:52:00,
2014-03-12 14:02:00,79.3,29.2,29.92,East,83,4.0,16.0,16,0.00,,,0.00,Wunderground v.1.15,2014-03-12 21:02:00,
2014-03-12 14:07:00,79.6,27.9,29.92,East,95,4.0,16.0,15,0.00,,,0.00,Wunderground v.1.15,2014-03-12 21:07:00,
2014-03-12 14:17:00,79.4,27.7,29.91,SE,146,6.0,16.0,15,0.00,,,0.00,Wunderground v.1.15,2014-03-12 21:17:00,
2014-03-12 14:22:00,79.5,29.4,29.91,East,87,5.0,7.0,16,0.00,,,0.00,Wunderground v.1.15,2014-03-12 21:22:00,
2014-03-12 14:27:00,79.5,29.4,29.91,NE,40,5.0,7.0,16,0.00,,,0.00,Wunderground v.1.15,2014-03-12 21:27:00,
2014-03-12 14:32:00,79.4,29.3,29.91,NE,54,5.0,6.0,16,0.00,,,0.00,Wunderground v.1.15,2014-03-12 21:32:00,
2014-03-12 14:42:00,79.8,29.6,29.91,SSE,162,4.0,5.0,16,0.00,,,0.00,Wunderground v.1.15,2014-03-12 21:42:00,
2014-03-12 14:52:00,80.2,28.3,29.90,ESE,107,3.0,4.0,15,0.00,,,0.00,Wunderground v.1.15,2014-03-12 21:52:00,
2014-03-12 15:02:00,79.8,28.0,29.90,ESE,104,4.0,13.0,15,0.00,,,0.00,Wunderground v.1.15,2014-03-12 22:02:00,
2014-03-12 15:12:00,79.5,27.8,29.90,ESE,120,4.0,4.0,15,0.00,,,0.00,Wunderground v.1.15,2014-03-12 22:12:00,
2014-03-12 15:22:00,80.7,28.7,29.89,SE,146,2.0,3.0,15,0.00,,,0.00,Wunderground v.1.15,2014-03-12 22:22:00,
2014-03-12 15:32:00,80.5,28.6,29.89,ESE,102,4.0,4.0,15,0.00,,,0.00,Wunderground v.1.15,2014-03-12 22:32:00,
2014-03-12 15:42:00,80.5,28.6,29.89,SSE,153,3.0,3.0,15,0.00,,,0.00,Wunderground v.1.15,2014-03-12 22:42:00,
2014-03-12 15:52:00,80.9,28.9,29.88,ESE,118,2.0,3.0,15,0.00,,,0.00,Wunderground v.1.15,2014-03-12 22:52:00,
2014-03-12 16:02:00,80.9,28.9,29.88,SE,129,3.0,3.0,15,0.00,,,0.00,Wunderground v.1.15,2014-03-12 23:02:00,
2014-03-12 16:12:00,81.1,29.1,29.87,SSW,203,3.0,14.0,15,0.00,,,0.00,Wunderground v.1.15,2014-03-12 23:12:00,
2014-03-12 16:22:00,81.1,29.1,29.87,South,170,4.0,10.0,15,0.00,,,0.00,Wunderground v.1.15,2014-03-12 23:22:00,
2014-03-12 16:32:00,80.8,40.6,29.87,South,170,4.0,6.0,24,0.00,,,0.00,Wunderground v.1.15,2014-03-12 23:32:00,
2014-03-12 16:42:00,76.7,49.2,29.87,SSE,157,8.0,8.0,38,0.00,,,0.00,Wunderground v.1.15,2014-03-12 23:42:00,
2014-03-12 16:52:00,74.3,51.6,29.87,South,175,7.0,8.0,45,0.00,,,0.00,Wunderground v.1.15,2014-03-12 23:52:00,
2014-03-12 17:02:00,71.5,55.0,29.87,SSE,166,9.0,12.0,56,0.00,,,0.00,Wunderground v.1.15,2014-03-13 00:02:00,
2014-03-12 17:12:00,69.7,53.3,29.88,SSW,195,10.0,10.0,56,0.00,,,0.00,Wunderground v.1.15,2014-03-13 00:12:00,
2014-03-12 17:22:00,68.6,53.2,29.89,SSW,202,9.0,9.0,58,0.00,,,0.00,Wunderground v.1.15,2014-03-13 00:22:00,
2014-03-12 17:32:00,67.5,54.0,29.90,SSW,192,8.0,8.0,62,0.00,,,0.00,Wunderground v.1.15,2014-03-13 00:32:00,
2014-03-12 17:42:00,66.5,53.9,29.91,SSW,203,8.0,8.0,64,0.00,,,0.00,Wunderground v.1.15,2014-03-13 00:42:00,
2014-03-12 17:52:00,66.0,54.3,29.91,South,190,8.0,8.0,66,0.00,,,0.00,Wunderground v.1.15,2014-03-13 00:52:00,
2014-03-12 18:02:00,65.6,55.2,29.91,South,189,7.0,7.0,69,0.00,,,0.00,Wunderground v.1.15,2014-03-13 01:02:00,
2014-03-12 18:12:00,65.0,54.6,29.91,SSE,168,7.0,20.0,69,0.00,,,0.00,Wunderground v.1.15,2014-03-13 01:12:00,
2014-03-12 18:22:00,64.4,54.8,29.92,SSW,205,7.0,10.0,71,0.00,,,0.00,Wunderground v.1.15,2014-03-13 01:22:00,
2014-03-12 18:32:00,63.9,54.7,29.92,SSW,198,7.0,9.0,72,0.00,,,0.00,Wunderground v.1.15,2014-03-13 01:32:00,
2014-03-12 18:42:00,63.4,54.6,29.92,SSW,213,6.0,9.0,73,0.00,,,0.00,Wunderground v.1.15,2014-03-13 01:42:00,
2014-03-12 18:52:00,62.8,55.1,29.93,SSW,194,6.0,6.0,76,0.00,,,0.00,Wunderground v.1.15,2014-03-13 01:52:00,
2014-03-12 19:02:00,62.3,55.4,29.93,South,178,6.0,6.0,78,0.00,,,0.00,Wunderground v.1.15,2014-03-13 02:02:00,
2014-03-12 19:12:00,62.0,55.4,29.93,SSW,211,5.0,5.0,79,0.00,,,0.00,Wunderground v.1.15,2014-03-13 02:12:00,
2014-03-12 19:17:00,61.8,55.2,29.94,SSW,213,4.0,21.0,79,0.00,,,0.00,Wunderground v.1.15,2014-03-13 02:17:00,
2014-03-12 19:27:00,61.5,55.3,29.94,South,179,4.0,5.0,80,0.00,,,0.00,Wunderground v.1.15,2014-03-13 02:27:00,
2014-03-12 19:37:00,61.3,55.4,29.94,South,182,3.0,4.0,81,0.00,,,0.00,Wunderground v.1.15,2014-03-13 02:37:00,
2014-03-12 19:42:00,61.3,55.4,29.94,South,188,3.0,3.0,81,0.00,,,0.00,Wunderground v.1.15,2014-03-13 02:42:00,
2014-03-12 19:52:00,61.1,55.2,29.95,SW,234,4.0,4.0,81,0.00,,,0.00,Wunderground v.1.15,2014-03-13 02:52:00,
2014-03-12 20:02:00,61.2,55.3,29.95,SW,225,3.0,14.0,81,0.00,,,0.00,Wunderground v.1.15,2014-03-13 03:02:00,
2014-03-12 20:12:00,60.9,55.0,29.95,SW,219,3.0,14.0,81,0.00,,,0.00,Wunderground v.1.15,2014-03-13 03:12:00,
2014-03-12 20:22:00,60.8,54.9,29.95,SW,219,1.0,1.0,81,0.00,,,0.00,Wunderground v.1.15,2014-03-13 03:22:00,
2014-03-12 20:32:00,60.6,54.7,29.95,SW,219,1.0,1.0,81,0.00,,,0.00,Wunderground v.1.15,2014-03-13 03:32:00,
2014-03-12 20:42:00,60.4,54.9,29.95,SW,215,1.0,1.0,82,0.00,,,0.00,Wunderground v.1.15,2014-03-13 03:42:00,
2014-03-12 20:52:00,60.3,54.8,29.95,SSW,207,2.0,2.0,82,0.00,,,0.00,Wunderground v.1.15,2014-03-13 03:52:00,
2014-03-12 21:02:00,60.2,54.7,29.95,SSW,207,1.0,1.0,82,0.00,,,0.00,Wunderground v.1.15,2014-03-13 04:02:00,
2014-03-12 21:07:00,60.0,54.5,29.95,SSW,207,1.0,9.0,82,0.00,,,0.00,Wunderground v.1.15,2014-03-13 04:07:00,
2014-03-12 21:12:00,60.0,54.8,29.95,SSW,207,0.0,9.0,83,0.00,,,0.00,Wunderground v.1.15,2014-03-13 04:12:00,
2014-03-12 21:22:00,59.8,54.6,29.95,SSW,207,0.0,0.0,83,0.00,,,0.00,Wunderground v.1.15,2014-03-13 04:22:00,
2014-03-12 21:32:00,59.6,54.4,29.95,SSW,207,0.0,0.0,83,0.00,,,0.00,Wunderground v.1.15,2014-03-13 04:32:00,
2014-03-12 21:42:00,59.4,54.2,29.95,SSW,207,0.0,0.0,83,0.00,,,0.00,Wunderground v.1.15,2014-03-13 04:42:00,
2014-03-12 21:52:00,59.1,54.3,29.95,SSW,207,0.0,0.0,84,0.00,,,0.00,Wunderground v.1.15,2014-03-13 04:52:00,
2014-03-12 21:57:00,59.0,54.2,29.95,SSW,207,0.0,0.0,84,0.00,,,0.00,Wunderground v.1.15,2014-03-13 04:57:00,
2014-03-12 22:02:00,58.7,53.9,29.95,SSW,207,0.0,5.0,84,0.00,,,0.00,Wunderground v.1.15,2014-03-13 05:02:00,
2014-03-12 22:12:00,58.5,54.0,29.95,SSW,207,0.0,5.0,85,0.00,,,0.00,Wunderground v.1.15,2014-03-13 05:12:00,
2014-03-12 22:17:00,58.5,54.0,29.95,SSW,207,0.0,5.0,85,0.00,,,0.00,Wunderground v.1.15,2014-03-13 05:17:00,
2014-03-12 22:27:00,58.4,53.9,29.95,SSW,207,0.0,0.0,85,0.00,,,0.00,Wunderground v.1.15,2014-03-13 05:27:00,
2014-03-12 22:37:00,58.2,53.7,29.95,SSW,207,0.0,1.0,85,0.00,,,0.00,Wunderground v.1.15,2014-03-13 05:37:00,
2014-03-12 22:47:00,58.0,53.5,29.95,SSW,207,1.0,1.0,85,0.00,,,0.00,Wunderground v.1.15,2014-03-13 05:47:00,
2014-03-12 22:52:00,57.8,53.3,29.95,SSW,207,1.0,1.0,85,0.00,,,0.00,Wunderground v.1.15,2014-03-13 05:52:00,
2014-03-12 23:02:00,57.5,53.3,29.95,SSW,207,0.0,2.0,86,0.00,,,0.00,Wunderground v.1.15,2014-03-13 06:02:00,
2014-03-12 23:12:00,57.1,53.0,29.95,SSW,207,0.0,2.0,86,0.00,,,0.00,Wunderground v.1.15,2014-03-13 06:12:00,
2014-03-12 23:22:00,56.8,53.0,29.95,SSW,207,0.0,0.0,87,0.00,,,0.00,Wunderground v.1.15,2014-03-13 06:22:00,